createdAt,value
2023-04-09T00:01:07.887Z,4.70
2023-04-09T00:03:36.489Z,3.77
2023-04-09T00:06:06.477Z,4.55
2023-04-09T00:08:34.729Z,5.32
2023-04-09T00:11:02.673Z,4.47
2023-04-09T00:16:01.781Z,3.38
2023-04-09T00:18:29.792Z,7.68
2023-04-09T00:20:57.651Z,3.40
2023-04-09T00:23:27.018Z,5.10
2023-04-09T00:25:54.941Z,4.95
2023-04-09T00:28:22.872Z,4.33
2023-04-09T00:30:50.914Z,6.97
2023-04-09T00:33:18.911Z,5.20
2023-04-09T00:35:46.878Z,6.67
2023-04-09T00:38:14.933Z,4.97
2023-04-09T00:40:44.391Z,8.03
2023-04-09T00:43:12.306Z,4.27
2023-04-09T00:45:40.521Z,5.13
2023-04-09T00:48:08.774Z,4.10
2023-04-09T00:50:37.235Z,4.63
2023-04-09T00:53:06.825Z,4.97
2023-04-09T00:55:35.500Z,5.03
2023-04-09T00:58:04.785Z,5.17
2023-04-09T01:00:32.721Z,4.27
2023-04-09T01:03:01.886Z,4.93
2023-04-09T01:05:35.625Z,3.90
2023-04-09T01:08:13.624Z,5.80
2023-04-09T01:10:48.200Z,4.45
2023-04-09T01:13:25.124Z,5.78
2023-04-09T01:15:57.934Z,5.87
2023-04-09T01:18:30.696Z,4.73
2023-04-09T01:21:03.340Z,5.10
2023-04-09T01:23:46.352Z,5.25
2023-04-09T01:26:30.458Z,5.45
2023-04-09T01:29:01.421Z,5.90
2023-04-09T01:31:32.205Z,4.63
2023-04-09T01:34:02.176Z,6.40
2023-04-09T01:36:32.385Z,5.07
2023-04-09T01:39:02.565Z,5.03
2023-04-09T01:41:33.545Z,3.73
2023-04-09T01:44:04.763Z,5.50
2023-04-09T01:46:34.749Z,6.93
2023-04-09T01:49:03.300Z,5.90
2023-04-09T01:51:32.611Z,6.53
2023-04-09T01:54:01.769Z,4.87
2023-04-09T01:56:29.760Z,5.80
2023-04-09T01:58:57.659Z,5.50
2023-04-09T02:01:37.148Z,5.53
2023-04-09T02:04:11.009Z,5.47
2023-04-09T02:06:43.377Z,6.30
2023-04-09T02:09:13.068Z,7.27
2023-04-09T02:11:43.387Z,5.47
2023-04-09T02:14:13.553Z,5.03
2023-04-09T02:16:43.353Z,4.50
2023-04-09T02:19:12.043Z,5.65
2023-04-09T02:21:39.967Z,5.57
2023-04-09T02:24:07.934Z,4.50
2023-04-09T02:26:35.925Z,5.28
2023-04-09T02:29:04.572Z,5.67
2023-04-09T02:31:32.637Z,5.13
2023-04-09T02:34:02.025Z,5.27
2023-04-09T02:36:29.934Z,6.43
2023-04-09T02:38:57.913Z,5.90
2023-04-09T02:41:25.924Z,4.60
2023-04-09T02:43:53.861Z,5.90
2023-04-09T02:46:22.147Z,6.63
2023-04-09T02:48:50.340Z,5.33
2023-04-09T02:51:19.980Z,6.80
2023-04-09T02:53:47.936Z,5.27
2023-04-09T02:56:15.932Z,7.30
2023-04-09T02:58:43.862Z,6.90
2023-04-09T03:01:11.869Z,6.73
2023-04-09T03:03:42.209Z,5.30
2023-04-09T03:06:10.663Z,5.33
2023-04-09T03:08:40.002Z,5.93
2023-04-09T03:11:08.110Z,5.63
2023-04-09T03:13:36.029Z,5.07
2023-04-09T03:16:03.995Z,5.27
2023-04-09T03:18:31.983Z,5.53
2023-04-09T03:21:01.154Z,5.77
2023-04-09T03:23:34.408Z,5.83
2023-04-09T03:26:06.006Z,6.17
2023-04-09T03:28:41.660Z,6.13
2023-04-09T03:31:09.648Z,6.50
2023-04-09T03:33:41.213Z,6.60
2023-04-09T03:36:10.043Z,6.07
2023-04-09T03:38:58.368Z,6.37
2023-04-09T03:41:32.809Z,7.03
2023-04-09T03:44:04.409Z,6.07
2023-04-09T03:46:39.980Z,7.43
2023-04-09T03:49:10.040Z,6.43
2023-04-09T03:51:42.608Z,8.03
2023-04-09T03:54:10.564Z,6.23
2023-04-09T03:56:41.019Z,7.40
2023-04-09T03:59:12.364Z,5.67
2023-04-09T04:01:43.600Z,5.90
2023-04-09T04:04:11.955Z,5.13
2023-04-09T04:06:47.444Z,7.60
2023-04-09T04:09:20.990Z,7.90
2023-04-09T04:11:57.034Z,6.23
2023-04-09T04:14:28.905Z,7.50
2023-04-09T04:17:04.040Z,6.40
2023-04-09T04:19:32.790Z,7.50
2023-04-09T04:22:01.306Z,5.43
2023-04-09T04:24:29.492Z,9.90
2023-04-09T04:26:58.893Z,6.30
2023-04-09T04:29:32.411Z,6.67
2023-04-09T04:32:02.403Z,6.77
2023-04-09T04:34:36.167Z,7.20
2023-04-09T04:37:14.922Z,7.13
2023-04-09T04:39:42.922Z,6.87
2023-04-09T04:42:16.983Z,6.47
2023-04-09T04:44:46.209Z,6.80
2023-04-09T04:47:30.212Z,6.83
2023-04-09T04:49:59.784Z,6.50
2023-04-09T04:52:27.883Z,8.33
2023-04-09T04:54:55.875Z,9.07
2023-04-09T04:57:26.735Z,7.53
2023-04-09T04:59:55.358Z,6.43
2023-04-09T05:02:23.453Z,7.17
2023-04-09T05:05:11.681Z,6.37
2023-04-09T05:07:45.821Z,8.13
2023-04-09T05:10:13.852Z,6.80
2023-04-09T05:12:45.188Z,6.53
2023-04-09T05:15:20.214Z,7.23
2023-04-09T05:17:48.163Z,7.30
2023-04-09T05:20:17.705Z,6.00
2023-04-09T05:23:04.783Z,6.40
2023-04-09T05:25:38.382Z,5.37
2023-04-09T05:28:11.224Z,5.60
2023-04-09T05:30:40.065Z,7.60
2023-04-09T05:33:09.072Z,4.97
2023-04-09T05:35:39.831Z,6.27
2023-04-09T05:38:08.016Z,4.73
2023-04-09T05:40:36.406Z,4.30
2023-04-09T05:43:09.442Z,6.47
2023-04-09T05:45:41.885Z,5.80
2023-04-09T05:48:10.274Z,6.40
2023-04-09T05:50:53.389Z,5.97
2023-04-09T05:53:22.463Z,6.37
2023-04-09T05:55:50.463Z,7.17
2023-04-09T05:58:22.183Z,6.73
2023-04-09T06:00:51.697Z,8.07
2023-04-09T06:03:20.057Z,6.93
2023-04-09T06:05:48.456Z,6.90
2023-04-09T06:08:16.661Z,8.07
2023-04-09T06:10:44.593Z,6.97
2023-04-09T06:13:12.575Z,7.60
2023-04-09T06:15:42.016Z,7.00
2023-04-09T06:18:10.004Z,9.03
2023-04-09T06:20:38.004Z,6.50
2023-04-09T06:23:06.280Z,9.13
2023-04-09T06:25:34.380Z,7.07
2023-04-09T06:28:03.077Z,7.73
2023-04-09T06:30:32.111Z,8.17
2023-04-09T06:33:01.457Z,7.60
2023-04-09T06:35:29.407Z,7.93
2023-04-09T06:37:57.386Z,6.47
2023-04-09T06:40:25.310Z,7.20
2023-04-09T06:42:53.201Z,8.90
2023-04-09T06:45:25.432Z,8.57
2023-04-09T06:47:53.562Z,8.47
2023-04-09T06:50:22.874Z,9.27
2023-04-09T06:52:50.852Z,7.57
2023-04-09T06:55:18.896Z,8.63
2023-04-09T06:57:46.883Z,8.17
2023-04-09T07:00:15.592Z,8.47
2023-04-09T07:02:43.747Z,8.07
2023-04-09T07:05:11.933Z,9.10
2023-04-09T07:07:41.246Z,5.83
2023-04-09T07:10:10.210Z,5.87
2023-04-09T07:12:38.141Z,7.27
2023-04-09T07:15:07.644Z,6.67
2023-04-09T07:17:36.258Z,8.57
2023-04-09T07:20:04.541Z,6.63
2023-04-09T07:22:32.426Z,8.97
2023-04-09T07:25:01.767Z,7.67
2023-04-09T07:27:30.268Z,6.67
2023-04-09T07:29:59.026Z,5.63
2023-04-09T07:32:28.562Z,7.33
2023-04-09T07:34:57.395Z,7.70
2023-04-09T07:37:25.371Z,9.10
2023-04-09T07:39:53.502Z,9.93
2023-04-09T07:42:22.960Z,9.23
2023-04-09T07:44:51.449Z,19.17
2023-04-09T07:47:19.355Z,8.73
2023-04-09T07:49:47.252Z,8.27
2023-04-09T07:52:15.436Z,10.30
2023-04-09T07:54:43.308Z,10.10
2023-04-09T07:57:11.320Z,9.45
2023-04-09T07:59:40.624Z,12.87
2023-04-09T08:02:08.988Z,10.45
2023-04-09T08:04:37.183Z,10.93
2023-04-09T08:07:05.428Z,12.23
2023-04-09T08:09:33.492Z,11.30
2023-04-09T08:12:01.425Z,11.43
2023-04-09T08:14:29.368Z,9.48
2023-04-09T08:16:58.691Z,10.57
2023-04-09T08:19:26.706Z,9.48
2023-04-09T08:21:54.615Z,11.93
2023-04-09T08:24:22.592Z,9.80
2023-04-09T08:26:50.526Z,10.07
2023-04-09T08:29:18.591Z,10.95
2023-04-09T08:31:46.535Z,13.25
2023-04-09T08:34:17.446Z,10.30
2023-04-09T08:36:47.326Z,9.45
2023-04-09T08:39:16.458Z,9.48
2023-04-09T08:41:45.060Z,10.85
2023-04-09T08:44:13.341Z,10.82
2023-04-09T08:46:41.401Z,13.68
2023-04-09T08:49:10.247Z,8.75
2023-04-09T08:51:40.381Z,10.98
2023-04-09T08:54:08.547Z,10.93
2023-04-09T08:56:36.844Z,10.48
2023-04-09T08:59:05.529Z,10.60
2023-04-09T09:01:34.056Z,11.63
2023-04-09T09:04:04.161Z,8.68
2023-04-09T09:06:34.148Z,11.02
2023-04-09T09:09:06.641Z,10.27
2023-04-09T09:11:35.452Z,10.18
2023-04-09T09:14:04.907Z,14.57
2023-04-09T09:16:34.820Z,9.50
2023-04-09T09:19:03.609Z,9.50
2023-04-09T09:21:31.655Z,11.60
2023-04-09T09:23:59.663Z,29.70
2023-04-09T09:26:30.426Z,13.52
2023-04-09T09:28:59.434Z,12.45
2023-04-09T09:31:27.916Z,11.93
2023-04-09T09:33:56.503Z,9.80
2023-04-09T09:36:34.664Z,9.30
2023-04-09T09:39:08.305Z,9.10
2023-04-09T09:41:38.026Z,9.60
2023-04-09T09:44:07.262Z,7.30
2023-04-09T09:46:37.350Z,8.90
2023-04-09T09:49:05.880Z,6.95
2023-04-09T09:51:36.935Z,6.97
2023-04-09T09:54:08.089Z,8.70
2023-04-09T09:56:42.677Z,7.93
2023-04-09T09:59:17.852Z,5.55
2023-04-09T10:01:48.388Z,6.07
2023-04-09T10:04:17.525Z,6.07
2023-04-09T10:06:46.515Z,6.03
2023-04-09T10:09:14.836Z,5.00
2023-04-09T10:11:45.654Z,6.25
2023-04-09T10:14:14.788Z,6.68
2023-04-09T10:16:43.023Z,5.40
2023-04-09T10:19:14.215Z,7.55
2023-04-09T10:21:47.709Z,5.70
2023-04-09T10:24:17.158Z,6.07
2023-04-09T10:26:46.983Z,6.03
2023-04-09T10:29:16.689Z,5.70
2023-04-09T10:31:50.019Z,4.75
2023-04-09T10:34:19.518Z,5.90
2023-04-09T10:36:53.041Z,6.03
2023-04-09T10:39:21.456Z,8.85
2023-04-09T10:41:51.515Z,5.53
2023-04-09T10:44:23.184Z,5.00
2023-04-09T10:46:51.399Z,6.78
2023-04-09T10:49:21.004Z,5.85
2023-04-09T10:52:04.645Z,5.65
2023-04-09T10:54:43.595Z,6.70
2023-04-09T10:57:14.699Z,5.47
2023-04-09T10:59:45.134Z,6.15
2023-04-09T11:02:44.054Z,5.80
2023-04-09T11:05:20.943Z,6.57
2023-04-09T11:07:58.569Z,6.80
2023-04-09T11:10:26.819Z,6.30
2023-04-09T11:12:56.135Z,6.50
2023-04-09T11:15:24.041Z,5.38
2023-04-09T11:17:52.121Z,5.30
2023-04-09T11:20:23.610Z,4.53
2023-04-09T11:22:53.144Z,5.75
2023-04-09T11:25:22.141Z,4.68
2023-04-09T11:27:50.917Z,4.88
2023-04-09T11:30:21.381Z,7.78
2023-04-09T11:32:49.911Z,4.85
2023-04-09T11:35:19.258Z,4.00
2023-04-09T11:37:48.108Z,4.30
2023-04-09T11:40:17.809Z,4.10
2023-04-09T11:42:46.625Z,5.28
2023-04-09T11:45:16.268Z,4.50
2023-04-09T11:47:46.777Z,4.75
2023-04-09T11:50:16.274Z,4.53
2023-04-09T11:52:45.765Z,4.13
2023-04-09T11:55:23.259Z,5.18
2023-04-09T11:57:53.150Z,5.72
2023-04-09T12:00:21.697Z,4.35
2023-04-09T12:02:52.179Z,4.68
2023-04-09T12:05:24.775Z,4.38
2023-04-09T12:07:56.576Z,4.38
2023-04-09T12:10:29.042Z,4.78
2023-04-09T12:13:02.464Z,5.13
2023-04-09T12:15:33.737Z,4.35
2023-04-09T12:18:03.676Z,8.75
2023-04-09T12:20:34.509Z,5.40
2023-04-09T12:23:03.909Z,5.80
2023-04-09T12:25:32.468Z,5.20
2023-04-09T12:28:00.542Z,4.63
2023-04-09T12:30:28.562Z,4.82
2023-04-09T12:32:57.070Z,6.50
2023-04-09T12:35:26.978Z,4.25
2023-04-09T12:37:54.891Z,5.50
2023-04-09T12:40:23.515Z,6.15
2023-04-09T12:42:51.725Z,6.03
2023-04-09T12:45:21.158Z,6.03
2023-04-09T12:47:49.465Z,4.68
2023-04-09T12:50:17.822Z,3.88
2023-04-09T12:52:47.221Z,6.60
2023-04-09T12:55:16.140Z,5.18
2023-04-09T12:57:45.844Z,3.40
2023-04-09T13:00:14.988Z,4.30
2023-04-09T13:02:43.141Z,4.38
2023-04-09T13:05:11.544Z,4.55
2023-04-09T13:07:41.497Z,4.32
2023-04-09T13:10:12.232Z,5.07
2023-04-09T13:12:40.211Z,5.13
2023-04-09T13:15:08.697Z,2.92
2023-04-09T13:17:36.662Z,2.70
2023-04-09T13:20:05.094Z,3.15
2023-04-09T13:22:33.024Z,9.00
2023-04-09T13:25:01.118Z,2.22
2023-04-09T13:27:30.438Z,2.78
2023-04-09T13:29:58.388Z,2.80
2023-04-09T13:32:26.776Z,6.70
2023-04-09T13:34:57.923Z,2.15
2023-04-09T13:37:26.483Z,3.55
2023-04-09T13:39:55.604Z,1.80
2023-04-09T13:42:24.009Z,3.60
2023-04-09T13:44:53.738Z,3.17
2023-04-09T13:47:23.956Z,3.03
2023-04-09T13:49:53.134Z,3.38
2023-04-09T13:52:21.181Z,2.65
2023-04-09T13:54:49.525Z,2.85
2023-04-09T13:57:17.880Z,3.00
2023-04-09T13:59:45.862Z,2.78
2023-04-09T14:02:15.442Z,2.75
2023-04-09T14:04:43.540Z,2.88
2023-04-09T14:07:11.654Z,2.40
2023-04-09T14:09:39.603Z,2.50
2023-04-09T14:12:07.601Z,1.60
2023-04-09T14:14:35.655Z,3.03
2023-04-09T14:17:03.545Z,2.72
2023-04-09T14:19:32.819Z,2.35
2023-04-09T14:22:00.850Z,3.05
2023-04-09T14:24:28.770Z,2.55
2023-04-09T14:26:56.903Z,1.77
2023-04-09T14:29:24.834Z,2.50
2023-04-09T14:31:54.242Z,1.65
2023-04-09T14:34:23.190Z,2.60
2023-04-09T14:36:52.460Z,2.22
2023-04-09T14:39:20.463Z,1.73
2023-04-09T14:41:48.425Z,2.15
2023-04-09T14:44:16.334Z,2.03
2023-04-09T14:46:44.600Z,1.85
2023-04-09T14:49:12.569Z,2.42
2023-04-09T14:51:40.663Z,4.20
2023-04-09T14:54:09.986Z,4.47
2023-04-09T14:56:37.909Z,3.90
2023-04-09T14:59:05.903Z,3.63
2023-04-09T15:01:33.894Z,4.50
2023-04-09T15:04:01.909Z,3.13
2023-04-09T15:06:31.379Z,2.63
2023-04-09T15:08:59.278Z,3.65
2023-04-09T15:11:29.458Z,3.78
2023-04-09T15:13:57.995Z,3.80
2023-04-09T15:16:28.072Z,2.97
2023-04-09T15:18:58.860Z,5.13
2023-04-09T15:21:28.540Z,4.20
2023-04-09T15:23:58.934Z,2.30
2023-04-09T15:26:29.054Z,3.90
2023-04-09T15:29:02.345Z,3.45
2023-04-09T15:31:30.624Z,2.95
2023-04-09T15:33:58.666Z,3.03
2023-04-09T15:36:27.136Z,2.92
2023-04-09T15:38:55.403Z,2.50
2023-04-09T15:41:24.005Z,2.80
2023-04-09T15:43:53.704Z,2.22
2023-04-09T15:46:21.901Z,2.75
2023-04-09T15:48:49.898Z,1.83
2023-04-09T15:51:17.850Z,1.92
2023-04-09T15:53:45.945Z,1.63
2023-04-09T15:56:15.274Z,3.42
2023-04-09T15:58:43.894Z,2.88
2023-04-09T16:01:13.531Z,4.43
2023-04-09T16:03:41.742Z,3.05
2023-04-09T16:06:13.369Z,2.67
2023-04-09T16:08:41.469Z,6.25
2023-04-09T16:11:09.587Z,2.83
2023-04-09T16:13:38.028Z,2.08
2023-04-09T16:16:07.541Z,2.67
2023-04-09T16:18:37.539Z,1.90
2023-04-09T16:21:06.059Z,2.45
2023-04-09T16:23:34.079Z,1.83
2023-04-09T16:26:02.023Z,2.50
2023-04-09T16:28:30.162Z,1.48
2023-04-09T16:30:58.177Z,1.40
2023-04-09T16:33:26.290Z,2.00
2023-04-09T16:35:55.576Z,1.95
2023-04-09T16:38:24.712Z,2.22
2023-04-09T16:40:52.633Z,2.42
2023-04-09T16:43:20.550Z,2.67
2023-04-09T16:45:48.483Z,1.73
2023-04-09T16:48:16.459Z,6.38
2023-04-09T16:50:44.419Z,2.67
2023-04-09T16:53:13.708Z,2.60
2023-04-09T16:55:41.646Z,2.08
2023-04-09T16:58:09.542Z,1.33
2023-04-09T17:00:37.621Z,1.55
2023-04-09T17:03:05.606Z,3.45
2023-04-09T17:05:33.865Z,2.05
2023-04-09T17:08:01.918Z,2.47
2023-04-09T17:10:31.300Z,3.40
2023-04-09T17:12:59.222Z,2.38
2023-04-09T17:15:27.315Z,1.90
2023-04-09T17:17:55.311Z,2.13
2023-04-09T17:20:24.948Z,2.30
2023-04-09T17:22:53.036Z,1.63
2023-04-09T17:25:21.490Z,2.22
2023-04-09T17:27:51.694Z,1.90
2023-04-09T17:30:19.619Z,3.83
2023-04-09T17:32:47.844Z,1.67
2023-04-09T17:35:15.799Z,1.58
2023-04-09T17:37:43.783Z,2.38
2023-04-09T17:40:15.095Z,2.22
2023-04-09T17:42:43.015Z,2.85
2023-04-09T17:45:13.082Z,2.83
2023-04-09T17:47:41.263Z,3.40
2023-04-09T17:50:10.390Z,3.08
2023-04-09T17:52:38.854Z,3.47
2023-04-09T17:55:08.132Z,3.13
2023-04-09T17:57:36.614Z,3.05
2023-04-09T18:00:05.205Z,5.13
2023-04-09T18:02:35.275Z,3.50
2023-04-09T18:05:04.860Z,2.53
2023-04-09T18:07:34.402Z,3.05
2023-04-09T18:10:02.928Z,2.50
2023-04-09T18:12:30.930Z,2.28
2023-04-09T18:14:58.815Z,1.83
2023-04-09T18:17:27.289Z,1.95
2023-04-09T18:19:58.459Z,3.33
2023-04-09T18:22:26.963Z,1.75
2023-04-09T18:24:55.281Z,1.48
2023-04-09T18:27:23.223Z,2.97
2023-04-09T18:29:51.118Z,1.95
2023-04-09T18:32:20.205Z,1.88
2023-04-09T18:34:48.614Z,1.90
2023-04-09T18:37:17.904Z,1.85
2023-04-09T18:39:46.031Z,2.50
2023-04-09T18:42:14.477Z,2.10
2023-04-09T18:44:42.622Z,2.08
2023-04-09T18:47:11.872Z,9.95
2023-04-09T18:49:39.781Z,2.05
2023-04-09T18:52:09.219Z,2.05
2023-04-09T18:54:38.960Z,1.80
2023-04-09T18:57:07.461Z,1.60
2023-04-09T18:59:35.879Z,2.35
2023-04-09T19:02:05.035Z,1.80
2023-04-09T19:04:36.329Z,3.15
2023-04-09T19:07:04.598Z,1.80
2023-04-09T19:09:33.146Z,3.55
2023-04-09T19:12:02.756Z,3.42
2023-04-09T19:14:30.693Z,2.20
2023-04-09T19:16:58.775Z,3.10
2023-04-09T19:19:27.436Z,1.83
2023-04-09T19:21:55.366Z,4.82
2023-04-09T19:24:23.656Z,3.40
2023-04-09T19:26:53.039Z,3.42
2023-04-09T19:29:22.295Z,3.90
2023-04-09T19:31:50.466Z,3.83
2023-04-09T19:34:18.442Z,4.80
2023-04-09T19:36:46.304Z,4.15
2023-04-09T19:39:15.216Z,4.18
2023-04-09T19:41:43.192Z,4.13
2023-04-09T19:44:11.401Z,3.72
2023-04-09T19:46:41.027Z,5.05
2023-04-09T19:49:09.067Z,4.90
2023-04-09T19:51:36.973Z,5.50
2023-04-09T19:54:05.073Z,4.03
2023-04-09T19:56:33.098Z,4.55
2023-04-09T19:59:01.031Z,4.10
2023-04-09T20:01:29.109Z,5.25
2023-04-09T20:03:58.626Z,4.55
2023-04-09T20:06:27.157Z,3.72
2023-04-09T20:08:56.031Z,3.88
2023-04-09T20:11:24.041Z,7.13
2023-04-09T20:13:52.050Z,5.47
2023-04-09T20:16:20.179Z,3.95
2023-04-09T20:18:48.151Z,4.97
2023-04-09T20:21:17.611Z,7.70
2023-04-09T20:23:46.364Z,3.97
2023-04-09T20:26:14.396Z,4.30
2023-04-09T20:28:42.320Z,6.18
2023-04-09T20:31:10.249Z,4.90
2023-04-09T20:33:38.158Z,3.65
2023-04-09T20:36:15.284Z,4.18
2023-04-09T20:38:44.622Z,4.53
2023-04-09T20:41:12.568Z,3.75
2023-04-09T20:43:40.540Z,4.40
2023-04-09T20:46:08.540Z,3.60
2023-04-09T20:48:36.578Z,3.85
2023-04-09T20:51:09.210Z,3.63
2023-04-09T20:53:37.553Z,3.88
2023-04-09T20:56:07.397Z,3.20
2023-04-09T20:58:35.548Z,3.90
2023-04-09T21:01:06.497Z,4.50
2023-04-09T21:03:34.961Z,3.45
2023-04-09T21:06:03.354Z,4.57
2023-04-09T21:08:31.437Z,4.15
2023-04-09T21:10:59.635Z,4.25
2023-04-09T21:13:28.909Z,5.05
2023-04-09T21:15:58.113Z,3.55
2023-04-09T21:18:26.228Z,5.45
2023-04-09T21:20:54.112Z,3.22
2023-04-09T21:23:22.161Z,2.60
2023-04-09T21:25:50.057Z,3.72
2023-04-09T21:28:18.088Z,4.43
2023-04-09T21:30:47.778Z,3.60
2023-04-09T21:33:15.791Z,6.28
2023-04-09T21:35:43.697Z,4.13
2023-04-09T21:38:11.654Z,3.92
2023-04-09T21:40:39.607Z,4.18
2023-04-09T21:43:08.831Z,4.82
2023-04-09T21:45:36.754Z,4.30
2023-04-09T21:48:06.368Z,5.03
2023-04-09T21:50:34.268Z,5.55
2023-04-09T21:53:03.200Z,4.85
2023-04-09T21:55:31.297Z,3.05
2023-04-09T21:57:59.193Z,3.95
2023-04-09T22:00:27.615Z,2.83
2023-04-09T22:03:00.981Z,3.38
2023-04-09T22:05:31.081Z,4.03
2023-04-09T22:07:59.175Z,4.68
2023-04-09T22:10:28.247Z,3.17
2023-04-09T22:12:56.465Z,4.82
2023-04-09T22:15:24.471Z,3.47
2023-04-09T22:17:52.848Z,4.80
2023-04-09T22:20:21.237Z,4.15
2023-04-09T22:22:50.533Z,2.38
2023-04-09T22:25:18.452Z,4.57
2023-04-09T22:27:50.612Z,3.05
2023-04-09T22:30:18.625Z,2.35
2023-04-09T22:32:46.577Z,2.13
2023-04-09T22:35:18.086Z,2.20
2023-04-09T22:37:47.248Z,3.13
2023-04-09T22:40:17.288Z,3.45
2023-04-09T22:42:47.215Z,3.53
2023-04-09T22:45:15.730Z,2.38
2023-04-09T22:47:43.770Z,3.38
2023-04-09T22:50:13.515Z,2.70
2023-04-09T22:52:41.485Z,3.85
2023-04-09T22:55:11.034Z,3.25
2023-04-09T22:57:43.025Z,2.60
2023-04-09T23:00:11.541Z,2.47
2023-04-09T23:02:39.615Z,4.32
2023-04-09T23:05:08.950Z,3.80
2023-04-09T23:07:36.946Z,2.58
2023-04-09T23:10:05.100Z,3.20
2023-04-09T23:12:33.024Z,3.65
2023-04-09T23:15:02.412Z,3.83
2023-04-09T23:17:30.488Z,3.97
2023-04-09T23:19:58.419Z,2.10
2023-04-09T23:22:27.319Z,5.35
2023-04-09T23:24:55.395Z,2.33
2023-04-09T23:27:28.245Z,3.65
2023-04-09T23:29:56.628Z,4.47
2023-04-09T23:32:25.948Z,3.15
2023-04-09T23:34:53.904Z,2.72
2023-04-09T23:37:21.849Z,5.95
2023-04-09T23:39:49.833Z,3.53
2023-04-09T23:42:17.797Z,4.05
2023-04-09T23:44:45.743Z,3.42
2023-04-09T23:47:14.084Z,2.22
2023-04-09T23:49:43.822Z,2.58
2023-04-09T23:52:11.706Z,5.25
2023-04-09T23:54:39.626Z,5.97
2023-04-09T23:57:07.565Z,3.20
2023-04-09T23:59:36.009Z,2.78
